»·PEaware :: SWA2351 KPHX-KABQ

SWA2351 :: KPHX-KABQ

FLIGHT INFORMATION

Flight Status: Arrived
Operator:
Southwest Airlines
More flights by this operator :: More flights under this callsign
Pilot: Jone M. (10385)
Aircraft: BOEING 737-800
(B738)
More flights by this aircraft type
Origin: KPHX Phoenix Sky Harbor Intl
United States
Destination: KABQ Albuquerque Intl Sunport
United States
More flights between these airports :: More routes between these airports
Route: FORPE1 SJN CABNO KRKEE3
File this flight plan on PilotEdge
Remarks: PBN / A1B1C1D1S1S2 DOF / 181231 REG / N8697C OPR / SWA PER / C RMK / TCAS
Altitude:
(Current/Filed)
31,000ft
Speed:
(Current/Filed)
395kts
Departed: 31-Dec-18 10:48 AM
Arrived: 31-Dec-18 11:29 AM
Distance/Time
Traveled:
285nm/0:41
Distance/Time
To Go:
Arrived

Flight Plot

Page will automatically refresh every two minutes.

Flight plan parsing failed; only flown route is shown


Map Options




Map Legend


Flown Route
Filed Route
Departure Airport
Arrival Airport
Navaid (VOR, NDB)
Fix

Horizontal Profiles

Position Reports

Time Latitude Longitude Heading Altitude Ground
Speed
31-Dec-18 10:20 33.433726 -111.996199 303 1142ft 0kts
31-Dec-18 10:21 33.433726 -111.996199 303 1142ft 0kts
31-Dec-18 10:22 33.433726 -111.996199 303 1142ft 0kts
31-Dec-18 10:23 33.433726 -111.996199 303 1142ft 0kts
31-Dec-18 10:24 33.433726 -111.996199 303 1142ft 0kts
31-Dec-18 10:25 33.433726 -111.996199 303 1142ft 0kts
31-Dec-18 10:26 33.433726 -111.996199 303 1142ft 0kts
31-Dec-18 10:27 33.433726 -111.996199 303 1142ft 0kts
31-Dec-18 10:28 33.433726 -111.996199 303 1142ft 0kts
31-Dec-18 10:29 33.433726 -111.996199 303 1142ft 0kts
31-Dec-18 10:30 33.433726 -111.996199 303 1142ft 0kts
31-Dec-18 10:31 33.433726 -111.996199 303 1142ft 0kts
31-Dec-18 10:32 33.433726 -111.996199 303 1142ft 0kts
31-Dec-18 10:33 33.433726 -111.996199 303 1142ft 0kts
31-Dec-18 10:34 33.433726 -111.996198 303 1142ft 0kts
31-Dec-18 10:35 33.433726 -111.996198 303 1142ft 0kts
31-Dec-18 10:36 33.433923 -111.995747 183 1142ft 1kts
31-Dec-18 10:37 33.433973 -111.995748 174 1141ft 0kts
31-Dec-18 10:38 33.433973 -111.995748 174 1141ft 0kts
31-Dec-18 10:39 33.433973 -111.995748 174 1141ft 0kts
31-Dec-18 10:40 33.433738 -111.995740 178 1142ft 8kts
31-Dec-18 10:41 33.432835 -111.998918 270 1141ft 18kts
31-Dec-18 10:42 33.432148 -112.004212 269 1142ft 23kts
31-Dec-18 10:43 33.432153 -112.012108 270 1142ft 23kts
31-Dec-18 10:44 33.432173 -112.020096 270 1142ft 23kts
31-Dec-18 10:45 33.432161 -112.025712 269 1142ft 7kts
31-Dec-18 10:46 33.431059 -112.026263 89 1142ft 27kts
31-Dec-18 10:47 33.431738 -111.981938 87 2342ft 172kts
31-Dec-18 10:48 33.435687 -111.917941 88 4159ft 209kts
31-Dec-18 10:49 33.457986 -111.839289 66 5795ft 288kts
31-Dec-18 10:50 33.493796 -111.751397 67 8930ft 304kts
31-Dec-18 10:51 33.532184 -111.656022 65 11604ft 328kts
31-Dec-18 10:52 33.575114 -111.549055 65 13732ft 372kts
31-Dec-18 10:53 33.621750 -111.432605 64 16490ft 393kts
31-Dec-18 10:54 33.670767 -111.309870 65 19043ft 412kts
31-Dec-18 10:55 33.718829 -111.181389 67 21336ft 429kts
31-Dec-18 10:56 33.766883 -111.046003 67 23435ft 446kts
31-Dec-18 10:57 33.816707 -110.905661 67 25356ft 461kts
31-Dec-18 10:58 33.868231 -110.759826 67 27132ft 476kts
31-Dec-18 10:59 33.920867 -110.610131 66 28725ft 491kts
31-Dec-18 11:00 33.973659 -110.459233 66 30207ft 504kts
31-Dec-18 11:01 34.028228 -110.302637 66 30903ft 526kts
31-Dec-18 11:02 34.084867 -110.139626 66 30879ft 526kts
31-Dec-18 11:03 34.141116 -109.976756 66 30877ft 526kts
31-Dec-18 11:04 34.197260 -109.813190 66 30879ft 526kts
31-Dec-18 11:05 34.253597 -109.648129 66 30884ft 526kts
31-Dec-18 11:06 34.309476 -109.483469 66 30882ft 527kts
31-Dec-18 11:07 34.365291 -109.318112 67 30876ft 526kts
31-Dec-18 11:08 34.418763 -109.158219 70 30886ft 528kts
31-Dec-18 11:09 34.443851 -108.982836 84 30887ft 530kts
31-Dec-18 11:10 34.466045 -108.806205 83 30883ft 529kts
31-Dec-18 11:11 34.488030 -108.630107 83 30887ft 529kts
31-Dec-18 11:12 34.512334 -108.453400 79 30904ft 531kts
31-Dec-18 11:13 34.542092 -108.282980 80 30910ft 519kts
31-Dec-18 11:14 34.571421 -108.111096 80 30907ft 519kts
31-Dec-18 11:15 34.600543 -107.938343 80 29072ft 519kts
31-Dec-18 11:16 34.636125 -107.771202 64 26273ft 502kts
31-Dec-18 11:17 34.701083 -107.624749 61 23596ft 481kts
31-Dec-18 11:18 34.762205 -107.482315 61 21063ft 459kts
31-Dec-18 11:19 34.820118 -107.346773 61 18705ft 436kts
31-Dec-18 11:20 34.874020 -107.218959 62 16794ft 390kts
31-Dec-18 11:21 34.903541 -107.101371 96 15376ft 337kts
31-Dec-18 11:22 34.890030 -106.978481 100 12921ft 341kts
31-Dec-18 11:23 34.881270 -106.871319 94 11020ft 297kts
31-Dec-18 11:24 34.908543 -106.782390 45 8388ft 264kts
31-Dec-18 11:25 34.947977 -106.720664 45 7430ft 195kts
31-Dec-18 11:26 34.981790 -106.679487 41 6504ft 163kts
31-Dec-18 11:27 35.013844 -106.640710 41 5639ft 159kts
31-Dec-18 11:28 35.034277 -106.616108 44 5362ft 19kts
31-Dec-18 11:29 35.036685 -106.614583 15 5362ft 0kts
31-Dec-18 11:30 35.040804 -106.613832 0 5362ft 20kts
31-Dec-18 11:31 35.045598 -106.613821 309 5362ft 4kts
31-Dec-18 11:32 35.046926 -106.614483 341 5362ft 0kts
31-Dec-18 11:33 35.046926 -106.614483 341 5362ft 0kts
31-Dec-18 11:34 35.046926 -106.614483 341 5362ft 0kts
31-Dec-18 11:35 35.046926 -106.614483 341 5362ft 0kts
31-Dec-18 11:36 35.046926 -106.614483 341 5362ft 0kts
31-Dec-18 11:37 35.046926 -106.614483 341 5362ft 0kts
31-Dec-18 11:38 35.046926 -106.614483 341 5362ft 0kts
31-Dec-18 11:39 35.046926 -106.614483 341 5362ft 0kts
31-Dec-18 11:40 35.046926 -106.614483 341 5362ft 0kts
31-Dec-18 11:41 35.046926 -106.614483 341 5362ft 0kts
31-Dec-18 11:42 35.046926 -106.614483 341 5362ft 0kts
31-Dec-18 11:43 35.046926 -106.614483 341 5362ft 0kts

Navigation Log

Ident Type
Flight plan parsing failed, navigation log unavailable